sensor_id;sensor_type;location;lat;lon;timestamp;pressure;altitude;pressure_sealevel;temperature;humidity
47761;BME280;33524;55.434;38.520;2024-01-16T00:01:04;98018.22;;;-2.71;100.00
47761;BME280;33524;55.434;38.520;2024-01-16T00:03:32;98024.12;;;-2.69;100.00
47761;BME280;33524;55.434;38.520;2024-01-16T00:06:00;98027.66;;;-2.71;100.00
47761;BME280;33524;55.434;38.520;2024-01-16T00:08:29;98025.03;;;-2.70;100.00
47761;BME280;33524;55.434;38.520;2024-01-16T00:10:57;98025.09;;;-2.71;100.00
47761;BME280;33524;55.434;38.520;2024-01-16T00:13:25;98021.63;;;-2.70;100.00
47761;BME280;33524;55.434;38.520;2024-01-16T00:15:53;98022.44;;;-2.70;100.00
47761;BME280;33524;55.434;38.520;2024-01-16T00:18:21;98023.38;;;-2.71;100.00
47761;BME280;33524;55.434;38.520;2024-01-16T00:20:50;98022.28;;;-2.67;100.00
47761;BME280;33524;55.434;38.520;2024-01-16T00:23:18;98023.78;;;-2.62;99.18
47761;BME280;33524;55.434;38.520;2024-01-16T00:25:46;98022.28;;;-2.67;99.74
47761;BME280;33524;55.434;38.520;2024-01-16T00:28:14;98012.81;;;-2.66;99.22
47761;BME280;33524;55.434;38.520;2024-01-16T00:30:43;98015.38;;;-2.66;99.54
47761;BME280;33524;55.434;38.520;2024-01-16T00:33:11;98017.88;;;-2.65;99.31
47761;BME280;33524;55.434;38.520;2024-01-16T00:35:40;98019.72;;;-2.67;100.00
47761;BME280;33524;55.434;38.520;2024-01-16T00:38:08;98025.75;;;-2.68;99.70
47761;BME280;33524;55.434;38.520;2024-01-16T00:40:36;98025.59;;;-2.65;99.66
47761;BME280;33524;55.434;38.520;2024-01-16T00:43:04;98025.59;;;-2.65;100.00
47761;BME280;33524;55.434;38.520;2024-01-16T00:45:35;98011.84;;;-2.79;99.82
47761;BME280;33524;55.434;38.520;2024-01-16T00:48:04;98041.87;;;-2.64;99.63
47761;BME280;33524;55.434;38.520;2024-01-16T00:50:34;98033.31;;;-2.65;100.00
47761;BME280;33524;55.434;38.520;2024-01-16T00:53:02;98016.63;;;-2.73;99.07
47761;BME280;33524;55.434;38.520;2024-01-16T00:55:30;98039.22;;;-2.62;99.21
47761;BME280;33524;55.434;38.520;2024-01-16T00:57:58;98037.34;;;-2.60;100.00
47761;BME280;33524;55.434;38.520;2024-01-16T01:00:26;98031.72;;;-2.67;100.00
47761;BME280;33524;55.434;38.520;2024-01-16T01:02:55;97998.00;;;-2.77;100.00
47761;BME280;33524;55.434;38.520;2024-01-16T01:05:23;98011.25;;;-2.69;100.00
47761;BME280;33524;55.434;38.520;2024-01-16T01:08:00;98023.78;;;-2.62;100.00
47761;BME280;33524;55.434;38.520;2024-01-16T01:10:28;98008.22;;;-2.61;100.00
47761;BME280;33524;55.434;38.520;2024-01-16T01:12:56;98003.19;;;-2.62;100.00
47761;BME280;33524;55.434;38.520;2024-01-16T01:15:24;98003.44;;;-2.67;100.00
47761;BME280;33524;55.434;38.520;2024-01-16T01:17:53;98012.75;;;-2.65;100.00
47761;BME280;33524;55.434;38.520;2024-01-16T01:20:22;98012.75;;;-2.65;100.00
47761;BME280;33524;55.434;38.520;2024-01-16T01:22:50;98011.25;;;-2.69;100.00
47761;BME280;33524;55.434;38.520;2024-01-16T01:25:22;98016.06;;;-2.62;100.00
47761;BME280;33524;55.434;38.520;2024-01-16T01:27:50;98020.28;;;-2.61;99.92
47761;BME280;33524;55.434;38.520;2024-01-16T01:30:18;98018.44;;;-2.59;100.00
47761;BME280;33524;55.434;38.520;2024-01-16T01:32:46;98020.09;;;-2.58;99.48
47761;BME280;33524;55.434;38.520;2024-01-16T01:35:17;98019.19;;;-2.57;99.44
47761;BME280;33524;55.434;38.520;2024-01-16T01:37:47;98017.69;;;-2.61;100.00
47761;BME280;33524;55.434;38.520;2024-01-16T01:40:15;98007.97;;;-2.56;98.68
47761;BME280;33524;55.434;38.520;2024-01-16T01:42:44;97990.91;;;-2.73;98.68
47761;BME280;33524;55.434;38.520;2024-01-16T01:45:12;98018.25;;;-2.56;99.77
47761;BME280;33524;55.434;38.520;2024-01-16T01:47:41;98020.00;;;-2.57;100.00
47761;BME280;33524;55.434;38.520;2024-01-16T01:50:14;98008.88;;;-2.57;99.22
47761;BME280;33524;55.434;38.520;2024-01-16T01:52:44;97993.41;;;-2.72;98.58
47761;BME280;33524;55.434;38.520;2024-01-16T01:55:13;98013.09;;;-2.56;100.00
47761;BME280;33524;55.434;38.520;2024-01-16T01:57:41;98013.09;;;-2.56;100.00
47761;BME280;33524;55.434;38.520;2024-01-16T02:00:11;98012.94;;;-2.53;100.00
47761;BME280;33524;55.434;38.520;2024-01-16T02:02:41;98006.88;;;-2.52;100.00
47761;BME280;33524;55.434;38.520;2024-01-16T02:05:10;98013.84;;;-2.54;100.00
47761;BME280;33524;55.434;38.520;2024-01-16T02:07:39;98014.03;;;-2.57;100.00
47761;BME280;33524;55.434;38.520;2024-01-16T02:10:07;98007.97;;;-2.56;100.00
47761;BME280;33524;55.434;38.520;2024-01-16T02:12:35;98020.09;;;-2.58;100.00
47761;BME280;33524;55.434;38.520;2024-01-16T02:15:04;98014.94;;;-2.58;100.00
47761;BME280;33524;55.434;38.520;2024-01-16T02:17:32;98014.13;;;-2.59;100.00
47761;BME280;33524;55.434;38.520;2024-01-16T02:20:20;98002.19;;;-2.60;100.00
47761;BME280;33524;55.434;38.520;2024-01-16T02:22:52;98006.88;;;-2.52;100.00
47761;BME280;33524;55.434;38.520;2024-01-16T02:25:22;98000.97;;;-2.54;100.00
47761;BME280;33524;55.434;38.520;2024-01-16T02:27:51;98008.16;;;-2.59;100.00
47761;BME280;33524;55.434;38.520;2024-01-16T02:30:19;98012.34;;;-2.58;100.00
47761;BME280;33524;55.434;38.520;2024-01-16T02:32:47;97984.28;;;-2.77;100.00
47761;BME280;33524;55.434;38.520;2024-01-16T02:35:16;98014.56;;;-2.67;100.00
47761;BME280;33524;55.434;38.520;2024-01-16T02:37:46;98011.81;;;-2.64;100.00
47761;BME280;33524;55.434;38.520;2024-01-16T02:40:14;98012.00;;;-2.67;100.00
47761;BME280;33524;55.434;38.520;2024-01-16T02:42:43;98008.69;;;-2.69;100.00
47761;BME280;33524;55.434;38.520;2024-01-16T02:45:11;98006.66;;;-2.64;100.00
47761;BME280;33524;55.434;38.520;2024-01-16T02:47:39;98012.16;;;-2.70;100.00
47761;BME280;33524;55.434;38.520;2024-01-16T02:50:09;98023.94;;;-2.66;100.00
47761;BME280;33524;55.434;38.520;2024-01-16T02:52:40;98016.56;;;-2.72;100.00
47761;BME280;33524;55.434;38.520;2024-01-16T02:55:08;98010.19;;;-2.80;100.00
47761;BME280;33524;55.434;38.520;2024-01-16T02:57:36;98019.87;;;-2.70;100.00
47761;BME280;33524;55.434;38.520;2024-01-16T03:00:07;98019.94;;;-2.71;100.00
47761;BME280;33524;55.434;38.520;2024-01-16T03:02:36;98006.22;;;-2.86;100.00
47761;BME280;33524;55.434;38.520;2024-01-16T03:05:05;98027.59;;;-2.70;100.00
47761;BME280;33524;55.434;38.520;2024-01-16T03:07:33;98004.22;;;-2.81;100.00
47761;BME280;33524;55.434;38.520;2024-01-16T03:10:02;98022.78;;;-2.76;100.00
47761;BME280;33524;55.434;38.520;2024-01-16T03:12:30;98034.50;;;-2.70;100.00
47761;BME280;33524;55.434;38.520;2024-01-16T03:14:59;98031.59;;;-2.80;100.00
47761;BME280;33524;55.434;38.520;2024-01-16T03:17:29;98021.31;;;-2.80;100.00
47761;BME280;33524;55.434;38.520;2024-01-16T03:19:57;98025.59;;;-2.65;100.00
47761;BME280;33524;55.434;38.520;2024-01-16T03:22:25;98027.94;;;-2.76;100.00
47761;BME280;33524;55.434;38.520;2024-01-16T03:24:54;98025.09;;;-2.71;100.00
47761;BME280;33524;55.434;38.520;2024-01-16T03:27:25;98022.88;;;-2.77;100.00
47761;BME280;33524;55.434;38.520;2024-01-16T03:29:53;98012.03;;;-2.82;100.00
47761;BME280;33524;55.434;38.520;2024-01-16T03:32:22;98017.66;;;-2.92;99.84
47761;BME280;33524;55.434;38.520;2024-01-16T03:34:50;98018.00;;;-2.82;100.00
47761;BME280;33524;55.434;38.520;2024-01-16T03:37:21;98020.97;;;-2.74;100.00
47761;BME280;33524;55.434;38.520;2024-01-16T03:39:49;98027.19;;;-2.78;100.00
47761;BME280;33524;55.434;38.520;2024-01-16T03:42:17;98035.91;;;-2.80;100.00
47761;BME280;33524;55.434;38.520;2024-01-16T03:44:46;98037.88;;;-2.70;100.00
47761;BME280;33524;55.434;38.520;2024-01-16T03:47:15;98046.88;;;-2.77;100.00
47761;BME280;33524;55.434;38.520;2024-01-16T03:49:43;98040.06;;;-2.78;100.00
47761;BME280;33524;55.434;38.520;2024-01-16T03:52:12;98040.06;;;-2.78;100.00
47761;BME280;33524;55.434;38.520;2024-01-16T03:54:40;98040.06;;;-2.78;100.00
47761;BME280;33524;55.434;38.520;2024-01-16T03:57:08;98027.19;;;-2.78;100.00
47761;BME280;33524;55.434;38.520;2024-01-16T03:59:37;98028.69;;;-2.90;100.00
47761;BME280;33524;55.434;38.520;2024-01-16T04:02:05;98024.28;;;-2.88;100.00
47761;BME280;33524;55.434;38.520;2024-01-16T04:04:34;98027.94;;;-2.76;100.00
47761;BME280;33524;55.434;38.520;2024-01-16T04:07:02;98018.84;;;-2.97;100.00
47761;BME280;33524;55.434;38.520;2024-01-16T04:09:30;98018.81;;;-2.81;100.00
47761;BME280;33524;55.434;38.520;2024-01-16T04:11:59;98018.19;;;-2.85;100.00
47761;BME280;33524;55.434;38.520;2024-01-16T04:14:27;98024.47;;;-2.75;100.00
47761;BME280;33524;55.434;38.520;2024-01-16T04:16:55;98022.91;;;-2.93;100.00
47761;BME280;33524;55.434;38.520;2024-01-16T04:19:23;98013.72;;;-2.97;100.00
47761;BME280;33524;55.434;38.520;2024-01-16T04:21:51;98030.62;;;-2.93;100.00
47761;BME280;33524;55.434;38.520;2024-01-16T04:24:19;98027.31;;;-2.95;100.00
47761;BME280;33524;55.434;38.520;2024-01-16T04:26:48;98036.19;;;-2.85;100.00
47761;BME280;33524;55.434;38.520;2024-01-16T04:29:16;98032.19;;;-3.07;100.00
47761;BME280;33524;55.434;38.520;2024-01-16T04:31:44;98028.81;;;-3.07;100.00
47761;BME280;33524;55.434;38.520;2024-01-16T04:34:12;98022.03;;;-2.78;100.00
47761;BME280;33524;55.434;38.520;2024-01-16T04:36:40;98007.69;;;-2.82;100.00
47761;BME280;33524;55.434;38.520;2024-01-16T04:39:11;98018.81;;;-2.81;100.00
47761;BME280;33524;55.434;38.520;2024-01-16T04:41:40;98025.16;;;-2.87;100.00
47761;BME280;33524;55.434;38.520;2024-01-16T04:44:08;98021.50;;;-2.83;100.00
47761;BME280;33524;55.434;38.520;2024-01-16T04:46:36;98029.03;;;-2.96;100.00
47761;BME280;33524;55.434;38.520;2024-01-16T04:49:05;98031.25;;;-2.74;100.00
47761;BME280;33524;55.434;38.520;2024-01-16T04:51:33;98037.81;;;-2.68;100.00
47761;BME280;33524;55.434;38.520;2024-01-16T04:54:01;98040.06;;;-2.78;100.00
47761;BME280;33524;55.434;38.520;2024-01-16T04:56:29;98040.66;;;-2.89;100.00
47761;BME280;33524;55.434;38.520;2024-01-16T04:58:57;98036.81;;;-2.81;100.00
47761;BME280;33524;55.434;38.520;2024-01-16T05:01:25;98038.09;;;-3.05;99.77
47761;BME280;33524;55.434;38.520;2024-01-16T05:03:57;98042.22;;;-3.02;100.00
47761;BME280;33524;55.434;38.520;2024-01-16T05:06:28;98043.38;;;-2.92;100.00
47761;BME280;33524;55.434;38.520;2024-01-16T05:08:56;98037.00;;;-3.00;100.00
47761;BME280;33524;55.434;38.520;2024-01-16T05:11:24;98038.00;;;-3.03;100.00
47761;BME280;33524;55.434;38.520;2024-01-16T05:13:52;98032.47;;;-2.95;100.00
47761;BME280;33524;55.434;38.520;2024-01-16T05:16:26;98040.75;;;-2.90;100.00
47761;BME280;33524;55.434;38.520;2024-01-16T05:18:54;98033.94;;;-2.91;100.00
47761;BME280;33524;55.434;38.520;2024-01-16T05:21:22;98033.44;;;-2.98;100.00
47761;BME280;33524;55.434;38.520;2024-01-16T05:23:50;98041.81;;;-2.94;100.00
47761;BME280;33524;55.434;38.520;2024-01-16T05:26:19;98046.69;;;-2.74;100.00
47761;BME280;33524;55.434;38.520;2024-01-16T05:28:47;98059.34;;;-2.85;100.00
47761;BME280;33524;55.434;38.520;2024-01-16T05:31:15;98061.81;;;-2.84;100.00
47761;BME280;33524;55.434;38.520;2024-01-16T05:33:43;98062.31;;;-2.93;100.00
47761;BME280;33524;55.434;38.520;2024-01-16T05:36:11;98060.06;;;-2.83;100.00
47761;BME280;33524;55.434;38.520;2024-01-16T05:38:39;98061.22;;;-2.73;100.00
47761;BME280;33524;55.434;38.520;2024-01-16T05:41:08;98048.59;;;-2.77;100.00
47761;BME280;33524;55.434;38.520;2024-01-16T05:43:36;98048.53;;;-2.76;100.00
47761;BME280;33524;55.434;38.520;2024-01-16T05:46:05;98047.03;;;-2.80;100.00
47761;BME280;33524;55.434;38.520;2024-01-16T05:48:33;98050.13;;;-2.89;100.00
47761;BME280;33524;55.434;38.520;2024-01-16T05:51:01;98045.66;;;-3.01;100.00
47761;BME280;33524;55.434;38.520;2024-01-16T05:53:29;98044.25;;;-2.91;100.00
47761;BME280;33524;55.434;38.520;2024-01-16T05:55:58;98043.25;;;-3.05;99.54
47761;BME280;33524;55.434;38.520;2024-01-16T05:58:28;98039.38;;;-2.81;100.00
47761;BME280;33524;55.434;38.520;2024-01-16T06:00:56;98042.91;;;-2.98;100.00
47761;BME280;33524;55.434;38.520;2024-01-16T06:03:25;98042.06;;;-2.83;100.00
47761;BME280;33524;55.434;38.520;2024-01-16T06:05:53;98050.94;;;-2.73;100.00
47761;BME280;33524;55.434;38.520;2024-01-16T06:08:21;98032.81;;;-2.71;100.00
47761;BME280;33524;55.434;38.520;2024-01-16T06:10:52;98049.84;;;-2.69;100.00
47761;BME280;33524;55.434;38.520;2024-01-16T06:13:21;98042.50;;;-2.91;100.00
47761;BME280;33524;55.434;38.520;2024-01-16T06:15:50;98043.91;;;-2.85;100.00
47761;BME280;33524;55.434;38.520;2024-01-16T06:18:18;98035.56;;;-2.74;100.00
47761;BME280;33524;55.434;38.520;2024-01-16T06:20:46;98044.84;;;-2.72;100.00
47761;BME280;33524;55.434;38.520;2024-01-16T06:23:15;98057.66;;;-2.86;99.95
47761;BME280;33524;55.434;38.520;2024-01-16T06:25:46;98058.81;;;-2.92;98.77
47761;BME280;33524;55.434;38.520;2024-01-16T06:28:14;98043.44;;;-2.61;100.00
47761;BME280;33524;55.434;38.520;2024-01-16T06:30:45;98051.00;;;-2.74;100.00
47761;BME280;33524;55.434;38.520;2024-01-16T06:33:13;98038.75;;;-2.85;99.04
47761;BME280;33524;55.434;38.520;2024-01-16T06:35:42;98030.28;;;-2.87;98.56
47761;BME280;33524;55.434;38.520;2024-01-16T06:38:10;98029.00;;;-2.64;100.00
47761;BME280;33524;55.434;38.520;2024-01-16T06:40:39;98038.41;;;-2.79;97.73
47761;BME280;33524;55.434;38.520;2024-01-16T06:43:07;98027.78;;;-2.73;98.23
47761;BME280;33524;55.434;38.520;2024-01-16T06:45:36;98031.44;;;-2.77;97.13
47761;BME280;33524;55.434;38.520;2024-01-16T06:48:04;98040.81;;;-2.76;97.15
47761;BME280;33524;55.434;38.520;2024-01-16T06:52:23;98043.63;;;-2.65;98.47
47761;BME280;33524;55.434;38.520;2024-01-16T06:54:52;98043.97;;;-2.71;97.43
47761;BME280;33524;55.434;38.520;2024-01-16T06:57:20;98032.41;;;-2.64;98.44
47761;BME280;33524;55.434;38.520;2024-01-16T06:59:48;98034.41;;;-2.69;97.72
47761;BME280;33524;55.434;38.520;2024-01-16T07:02:17;98044.13;;;-2.74;96.79
47761;BME280;33524;55.434;38.520;2024-01-16T07:04:45;98041.94;;;-2.66;97.87
47761;BME280;33524;55.434;38.520;2024-01-16T07:07:16;98036.50;;;-2.45;100.00
47761;BME280;33524;55.434;38.520;2024-01-16T07:09:45;98040.31;;;-2.67;97.41
47761;BME280;33524;55.434;38.520;2024-01-16T07:12:13;98036.25;;;-2.56;99.12
47761;BME280;33524;55.434;38.520;2024-01-16T07:14:41;98042.00;;;-2.51;100.00
47761;BME280;33524;55.434;38.520;2024-01-16T07:17:10;98031.31;;;-2.59;99.25
47761;BME280;33524;55.434;38.520;2024-01-16T07:19:38;98028.53;;;-2.56;98.99
47761;BME280;33524;55.434;38.520;2024-01-16T07:22:06;98035.09;;;-2.51;100.00
47761;BME280;33524;55.434;38.520;2024-01-16T07:24:34;98031.84;;;-2.54;98.82
47761;BME280;33524;55.434;38.520;2024-01-16T07:27:02;98032.38;;;-2.48;99.46
47761;BME280;33524;55.434;38.520;2024-01-16T07:29:30;98037.06;;;-2.40;99.77
47761;BME280;33524;55.434;38.520;2024-01-16T07:31:59;98028.44;;;-2.39;98.84
47761;BME280;33524;55.434;38.520;2024-01-16T07:34:26;98025.78;;;-2.37;98.21
47761;BME280;33524;55.434;38.520;2024-01-16T07:36:55;98029.72;;;-2.32;97.31
47761;BME280;33524;55.434;38.520;2024-01-16T07:39:23;98017.03;;;-2.35;95.84
47761;BME280;33524;55.434;38.520;2024-01-16T07:41:51;98025.16;;;-2.27;96.85
47761;BME280;33524;55.434;38.520;2024-01-16T07:44:22;98031.84;;;-2.24;96.04
47761;BME280;33524;55.434;38.520;2024-01-16T07:46:50;98024.94;;;-2.24;96.17
47761;BME280;33524;55.434;38.520;2024-01-16T07:49:18;98018.16;;;-2.25;96.46
47761;BME280;33524;55.434;38.520;2024-01-16T07:51:50;98014.94;;;-2.14;98.58
47761;BME280;33524;55.434;38.520;2024-01-16T07:54:18;98019.44;;;-2.17;95.92
47761;BME280;33524;55.434;38.520;2024-01-16T07:56:46;98013.03;;;-2.10;96.69
47761;BME280;33524;55.434;38.520;2024-01-16T07:59:14;98013.03;;;-2.10;95.56
47761;BME280;33524;55.434;38.520;2024-01-16T08:01:43;98008.78;;;-2.11;95.26
47761;BME280;33524;55.434;38.520;2024-01-16T08:04:12;98010.47;;;-2.10;96.63
47761;BME280;33524;55.434;38.520;2024-01-16T08:06:40;98009.63;;;-2.11;94.83
47761;BME280;33524;55.434;38.520;2024-01-16T08:09:08;98006.13;;;-2.10;94.30
47761;BME280;33524;55.434;38.520;2024-01-16T08:11:36;98005.59;;;-2.15;94.26
47761;BME280;33524;55.434;38.520;2024-01-16T08:14:05;98012.00;;;-2.08;97.11
47761;BME280;33524;55.434;38.520;2024-01-16T08:16:33;98008.69;;;-2.10;96.79
47761;BME280;33524;55.434;38.520;2024-01-16T08:19:01;98013.19;;;-2.13;94.88
47761;BME280;33524;55.434;38.520;2024-01-16T08:21:31;98010.25;;;-2.07;95.83
47761;BME280;33524;55.434;38.520;2024-01-16T08:23:59;98002.44;;;-2.06;95.28
47761;BME280;33524;55.434;38.520;2024-01-16T08:26:32;97997.94;;;-2.02;95.20
47761;BME280;33524;55.434;38.520;2024-01-16T08:29:00;98001.19;;;-1.98;93.91
47761;BME280;33524;55.434;38.520;2024-01-16T08:31:28;97995.00;;;-1.96;94.25
47761;BME280;33524;55.434;38.520;2024-01-16T08:33:57;97994.00;;;-1.93;96.80
47761;BME280;33524;55.434;38.520;2024-01-16T08:36:25;97982.88;;;-1.94;94.02
47761;BME280;33524;55.434;38.520;2024-01-16T08:38:53;97985.53;;;-1.95;93.42
47761;BME280;33524;55.434;38.520;2024-01-16T08:41:23;97987.38;;;-1.97;94.57
47761;BME280;33524;55.434;38.520;2024-01-16T08:43:51;97984.13;;;-2.01;94.49
47761;BME280;33524;55.434;38.520;2024-01-16T08:46:19;97983.31;;;-2.01;95.24
47761;BME280;33524;55.434;38.520;2024-01-16T08:48:49;97979.00;;;-2.01;94.16
47761;BME280;33524;55.434;38.520;2024-01-16T08:51:17;97988.37;;;-2.00;93.34
47761;BME280;33524;55.434;38.520;2024-01-16T08:53:45;97985.81;;;-2.00;92.87
47761;BME280;33524;55.434;38.520;2024-01-16T08:56:13;97987.38;;;-1.97;94.36
47761;BME280;33524;55.434;38.520;2024-01-16T08:58:41;97989.13;;;-1.98;92.57
47761;BME280;33524;55.434;38.520;2024-01-16T09:01:09;97987.44;;;-1.99;92.95
47761;BME280;33524;55.434;38.520;2024-01-16T09:03:39;97987.09;;;-1.93;91.72
47761;BME280;33524;55.434;38.520;2024-01-16T09:06:07;97977.44;;;-1.89;91.75
47761;BME280;33524;55.434;38.520;2024-01-16T09:08:36;97968.69;;;-1.87;93.55
47761;BME280;33524;55.434;38.520;2024-01-16T09:11:05;97971.25;;;-1.87;94.45
47761;BME280;33524;55.434;38.520;2024-01-16T09:13:33;97968.41;;;-1.82;92.31
47761;BME280;33524;55.434;38.520;2024-01-16T09:16:01;97969.97;;;-1.79;92.50
47761;BME280;33524;55.434;38.520;2024-01-16T09:18:30;97964.84;;;-1.79;92.34
47761;BME280;33524;55.434;38.520;2024-01-16T09:20:58;97959.37;;;-1.75;91.61
47761;BME280;33524;55.434;38.520;2024-01-16T09:23:26;97953.13;;;-1.71;92.10
47761;BME280;33524;55.434;38.520;2024-01-16T09:25:55;97948.41;;;-1.64;92.00
47761;BME280;33524;55.434;38.520;2024-01-16T09:28:23;97952.06;;;-1.54;91.25
47761;BME280;33524;55.434;38.520;2024-01-16T09:30:51;97949.31;;;-1.51;92.52
47761;BME280;33524;55.434;38.520;2024-01-16T09:33:20;97949.19;;;-1.49;91.59
47761;BME280;33524;55.434;38.520;2024-01-16T09:35:48;97953.38;;;-1.47;92.48
47761;BME280;33524;55.434;38.520;2024-01-16T09:38:17;97958.66;;;-1.35;90.76
47761;BME280;33524;55.434;38.520;2024-01-16T09:40:50;97957.75;;;-1.34;89.78
47761;BME280;33524;55.434;38.520;2024-01-16T09:43:20;97959.97;;;-1.43;91.93
47761;BME280;33524;55.434;38.520;2024-01-16T09:45:51;97954.44;;;-1.36;89.86
47761;BME280;33524;55.434;38.520;2024-01-16T09:48:20;97949.47;;;-1.39;90.31
47761;BME280;33524;55.434;38.520;2024-01-16T09:50:52;97949.66;;;-1.43;91.42
47761;BME280;33524;55.434;38.520;2024-01-16T09:53:20;97939.16;;;-1.39;91.04
47761;BME280;33524;55.434;38.520;2024-01-16T09:55:54;97936.09;;;-1.32;91.28
47761;BME280;33524;55.434;38.520;2024-01-16T09:58:23;97934.34;;;-1.31;91.44
47761;BME280;33524;55.434;38.520;2024-01-16T10:00:52;97934.03;;;-1.27;90.70
47761;BME280;33524;55.434;38.520;2024-01-16T10:03:21;97929.91;;;-1.29;90.67
47761;BME280;33524;55.434;38.520;2024-01-16T10:05:49;97931.66;;;-1.30;90.28
47761;BME280;33524;55.434;38.520;2024-01-16T10:08:18;97938.03;;;-1.35;90.60
47761;BME280;33524;55.434;38.520;2024-01-16T10:10:49;97937.69;;;-1.44;91.19
47761;BME280;33524;55.434;38.520;2024-01-16T10:13:20;97936.06;;;-1.45;91.89
47761;BME280;33524;55.434;38.520;2024-01-16T10:15:51;97937.91;;;-1.47;92.37
47761;BME280;33524;55.434;38.520;2024-01-16T10:18:25;97937.91;;;-1.47;91.76
47761;BME280;33524;55.434;38.520;2024-01-16T10:20:54;97935.13;;;-1.44;91.12
47761;BME280;33524;55.434;38.520;2024-01-16T10:23:27;97935.75;;;-1.40;90.43
47761;BME280;33524;55.434;38.520;2024-01-16T10:28:36;97920.00;;;-1.35;90.55
47761;BME280;33524;55.434;38.520;2024-01-16T10:31:13;97916.50;;;-1.34;90.28
47761;BME280;33524;55.434;38.520;2024-01-16T10:33:45;97906.03;;;-1.46;89.61
47761;BME280;33524;55.434;38.520;2024-01-16T10:36:16;97903.84;;;-1.52;89.41
47761;BME280;33524;55.434;38.520;2024-01-16T10:38:47;97892.28;;;-1.59;89.52
47761;BME280;33524;55.434;38.520;2024-01-16T10:41:16;97911.22;;;-1.60;88.86
47761;BME280;33524;55.434;38.520;2024-01-16T10:43:45;97905.63;;;-1.67;90.41
47761;BME280;33524;55.434;38.520;2024-01-16T10:46:15;97906.53;;;-1.68;89.64
47761;BME280;33524;55.434;38.520;2024-01-16T10:49:06;97901.66;;;-1.72;89.51
47761;BME280;33524;55.434;38.520;2024-01-16T10:51:35;97901.88;;;-1.75;91.06
47761;BME280;33524;55.434;38.520;2024-01-16T10:54:04;97897.63;;;-1.76;90.20
47761;BME280;33524;55.434;38.520;2024-01-16T10:56:46;97893.50;;;-1.79;90.18
47761;BME280;33524;55.434;38.520;2024-01-16T11:01:54;97891.00;;;-1.80;90.96
47761;BME280;33524;55.434;38.520;2024-01-16T11:04:24;97893.41;;;-1.77;91.18
47761;BME280;33524;55.434;38.520;2024-01-16T11:06:56;97894.41;;;-1.80;90.38
47761;BME280;33524;55.434;38.520;2024-01-16T11:09:25;97884.94;;;-1.79;91.02
47761;BME280;33524;55.434;38.520;2024-01-16T11:11:55;97874.81;;;-1.83;91.79
47761;BME280;33524;55.434;38.520;2024-01-16T11:14:27;97878.56;;;-1.74;94.00
47761;BME280;33524;55.434;38.520;2024-01-16T11:16:58;97878.94;;;-1.80;92.72
47761;BME280;33524;55.434;38.520;2024-01-16T11:19:29;97871.34;;;-1.81;92.53
47761;BME280;33524;55.434;38.520;2024-01-16T11:22:18;97871.72;;;-1.88;91.19
47761;BME280;33524;55.434;38.520;2024-01-16T11:25:10;97871.12;;;-1.78;92.84
47761;BME280;33524;55.434;38.520;2024-01-16T11:27:40;97876.75;;;-1.86;92.01
47761;BME280;33524;55.434;38.520;2024-01-16T11:30:10;97864.88;;;-1.74;96.35
47761;BME280;33524;55.434;38.520;2024-01-16T11:32:40;97861.41;;;-1.88;94.05
47761;BME280;33524;55.434;38.520;2024-01-16T11:35:10;97857.72;;;-1.84;95.92
47761;BME280;33524;55.434;38.520;2024-01-16T11:37:41;97848.78;;;-1.92;94.46
47761;BME280;33524;55.434;38.520;2024-01-16T11:42:45;97846.34;;;-1.94;97.13
47761;BME280;33524;55.434;38.520;2024-01-16T11:48:10;97842.50;;;-2.15;92.88
47761;BME280;33524;55.434;38.520;2024-01-16T11:50:39;97845.38;;;-2.20;92.88
47761;BME280;33524;55.434;38.520;2024-01-16T11:53:31;97838.19;;;-2.15;92.43
47761;BME280;33524;55.434;38.520;2024-01-16T11:58:48;97840.88;;;-2.16;92.41
47761;BME280;33524;55.434;38.520;2024-01-16T12:01:20;97833.97;;;-2.16;91.51
47761;BME280;33524;55.434;38.520;2024-01-16T12:04:07;97831.81;;;-2.09;91.99
47761;BME280;33524;55.434;38.520;2024-01-16T12:06:37;97822.53;;;-2.12;92.45
47761;BME280;33524;55.434;38.520;2024-01-16T12:09:16;97817.44;;;-1.99;92.51
47761;BME280;33524;55.434;38.520;2024-01-16T12:11:56;97815.00;;;-2.00;93.07
47761;BME280;33524;55.434;38.520;2024-01-16T12:14:25;97792.22;;;-2.21;92.14
47761;BME280;33524;55.434;38.520;2024-01-16T12:17:12;97809.59;;;-2.10;91.49
47761;BME280;33524;55.434;38.520;2024-01-16T12:19:40;97808.13;;;-2.14;91.58
47761;BME280;33524;55.434;38.520;2024-01-16T12:22:13;97793.03;;;-2.20;91.98
47761;BME280;33524;55.434;38.520;2024-01-16T12:24:42;97801.22;;;-2.28;91.80
47761;BME280;33524;55.434;38.520;2024-01-16T12:27:13;97784.97;;;-2.29;93.80
47761;BME280;33524;55.434;38.520;2024-01-16T12:29:42;97781.44;;;-2.13;97.85
47761;BME280;33524;55.434;38.520;2024-01-16T12:32:11;97792.97;;;-1.92;100.00
47761;BME280;33524;55.434;38.520;2024-01-16T12:34:48;97786.09;;;-2.06;99.24
47761;BME280;33524;55.434;38.520;2024-01-16T12:37:17;97778.84;;;-2.13;99.10
47761;BME280;33524;55.434;38.520;2024-01-16T12:39:48;97789.72;;;-1.81;100.00
47761;BME280;33524;55.434;38.520;2024-01-16T12:42:20;97782.00;;;-2.22;97.91
47761;BME280;33524;55.434;38.520;2024-01-16T12:44:52;97779.12;;;-2.45;94.34
47761;BME280;33524;55.434;38.520;2024-01-16T12:47:21;97782.59;;;-2.60;93.85
47761;BME280;33524;55.434;38.520;2024-01-16T12:49:50;97780.03;;;-2.60;93.36
47761;BME280;33524;55.434;38.520;2024-01-16T12:52:21;97785.38;;;-2.64;92.36
47761;BME280;33524;55.434;38.520;2024-01-16T12:54:59;97787.22;;;-2.66;93.06
47761;BME280;33524;55.434;38.520;2024-01-16T12:57:31;97777.28;;;-2.72;92.76
47761;BME280;33524;55.434;38.520;2024-01-16T13:00:00;97767.00;;;-2.72;93.32
47761;BME280;33524;55.434;38.520;2024-01-16T13:02:32;97770.69;;;-2.76;94.12
47761;BME280;33524;55.434;38.520;2024-01-16T13:05:02;97768.09;;;-2.76;93.91
47761;BME280;33524;55.434;38.520;2024-01-16T13:07:31;97765.72;;;-2.79;93.56
47761;BME280;33524;55.434;38.520;2024-01-16T13:10:12;97765.91;;;-2.82;93.42
47761;BME280;33524;55.434;38.520;2024-01-16T13:12:44;97761.56;;;-2.81;92.92